Time;durP1;ratioP1;P1;durP2;ratioP2;P2;SDS_P1;SDS_P2;PMS_P1;PMS_P2;Temp;Humidity;BMP_temperature;BMP_pressure;BME280_temperature;BME280_humidity;BME280_pressure;Samples;Min_cycle;Max_cycle;Signal;HPM_P1;HPM_P2
2024/04/13 00:00:18;;;;;;;8.15;4.55;;;;;;;10.40;100.00;97245.44;7395412;19;20015;-56
2024/04/13 00:02:43;;;;;;;11.52;5.53;;;;;;;10.51;100.00;97243.44;7395273;19;20003;-62
2024/04/13 00:05:09;;;;;;;6.68;5.05;;;;;;;10.44;100.00;97245.31;7394310;19;20002;-59
2024/04/13 00:07:36;;;;;;;7.63;4.75;;;;;;;10.26;100.00;97249.25;7395294;19;20010;-55
2024/04/13 00:10:03;;;;;;;7.55;5.35;;;;;;;10.38;100.00;97244.63;7395267;19;20007;-57
2024/04/13 00:12:29;;;;;;;9.40;5.28;;;;;;;10.42;100.00;97244.50;7394915;19;20446;-58
2024/04/13 00:14:54;;;;;;;9.52;4.93;;;;;;;10.40;100.00;97253.28;7395051;19;19995;-57
2024/04/13 00:17:20;;;;;;;6.20;4.95;;;;;;;10.38;100.00;97249.88;7394730;19;20003;-55
2024/04/13 00:19:46;;;;;;;10.15;4.85;;;;;;;10.40;100.00;97243.69;7405448;19;20003;-57
2024/04/13 00:22:11;;;;;;;11.35;5.15;;;;;;;10.39;100.00;97243.72;7409270;19;19995;-55
2024/04/13 00:24:37;;;;;;;6.75;4.70;;;;;;;10.34;100.00;97236.00;7409099;19;20463;-52
2024/04/13 00:27:03;;;;;;;7.35;4.60;;;;;;;10.08;100.00;97240.13;7408915;19;19991;-57
2024/04/13 00:29:32;;;;;;;7.15;5.15;;;;;;;10.16;100.00;97230.34;7408937;19;19999;-60
2024/04/13 00:31:58;;;;;;;5.72;4.40;;;;;;;10.23;100.00;97231.03;7409209;19;20002;-61
2024/04/13 00:34:24;;;;;;;11.25;4.53;;;;;;;10.40;100.00;97222.75;7407221;19;20006;-58
2024/04/13 00:36:50;;;;;;;4.85;4.32;;;;;;;10.52;100.00;97224.22;7409073;19;19998;-56
2024/04/13 00:39:16;;;;;;;11.02;5.18;;;;;;;10.50;100.00;97226.00;7409177;19;19994;-60
2024/04/13 00:41:42;;;;;;;7.55;4.72;;;;;;;10.32;100.00;97230.81;7409098;19;20018;-58
2024/04/13 00:44:07;;;;;;;7.28;4.30;;;;;;;10.28;100.00;97231.78;7408712;19;20002;-57
2024/04/13 00:46:33;;;;;;;12.05;5.55;;;;;;;10.35;100.00;97235.97;7408886;19;20403;-56
2024/04/13 00:49:10;;;;;;;10.40;4.32;;;;;;;10.31;100.00;97226.47;7408452;19;20486;-57
2024/04/13 00:51:37;;;;;;;6.32;4.60;;;;;;;10.38;100.00;97227.16;7408842;19;20023;-55
2024/04/13 00:54:04;;;;;;;8.40;4.78;;;;;;;10.32;100.00;97227.31;7406967;19;20023;-57
2024/04/13 00:56:30;;;;;;;12.75;5.47;;;;;;;10.36;100.00;97235.06;7408168;19;19999;-55
2024/04/13 00:58:56;;;;;;;9.38;4.65;;;;;;;10.03;100.00;97237.66;7408626;19;20015;-58
2024/04/13 01:01:24;;;;;;;6.65;4.50;;;;;;;10.19;100.00;97234.63;7408038;19;20346;-58
2024/04/13 01:03:51;;;;;;;7.75;4.88;;;;;;;10.16;100.00;97234.72;7407896;19;20002;-58
2024/04/13 01:06:17;;;;;;;8.05;4.40;;;;;;;10.29;100.00;97243.97;7408520;19;20024;-59
2024/04/13 01:08:42;;;;;;;8.15;4.65;;;;;;;10.17;100.00;97239.91;7407904;19;20457;-57
2024/04/13 01:11:08;;;;;;;7.25;4.22;;;;;;;10.16;100.00;97238.19;7407800;19;19990;-57
2024/04/13 01:13:34;;;;;;;6.25;4.30;;;;;;;10.25;100.00;97242.31;7407104;19;20002;-57
2024/04/13 01:16:00;;;;;;;6.55;4.45;;;;;;;10.22;100.00;97237.16;7407671;19;20037;-54
2024/04/13 01:18:25;;;;;;;7.57;4.65;;;;;;;10.12;100.00;97239.16;7408009;19;20017;-57
2024/04/13 01:20:52;;;;;;;8.55;4.85;;;;;;;10.05;100.00;97237.63;7407520;19;20489;-58
2024/04/13 01:23:20;;;;;;;8.10;5.10;;;;;;;10.07;100.00;97231.44;7407597;19;20015;-54
2024/04/13 01:25:45;;;;;;;6.15;4.68;;;;;;;9.84;100.00;97232.84;7406739;19;20009;-58
2024/04/13 01:28:12;;;;;;;6.85;4.78;;;;;;;9.77;100.00;97233.03;7408058;19;20365;-59
2024/04/13 01:30:39;;;;;;;8.75;5.00;;;;;;;9.84;100.00;97232.84;7401760;19;20465;-60
2024/04/13 01:33:05;;;;;;;8.25;5.07;;;;;;;9.90;100.00;97229.22;7399673;19;20016;-56
2024/04/13 01:35:30;;;;;;;9.10;5.18;;;;;;;9.88;100.00;97222.31;7400169;19;20002;-59
2024/04/13 01:37:56;;;;;;;7.10;4.57;;;;;;;9.88;100.00;97223.19;7400153;19;20006;-55
2024/04/13 01:40:22;;;;;;;9.48;5.03;;;;;;;10.03;100.00;97216.72;7400211;19;20115;-56
2024/04/13 01:42:48;;;;;;;9.15;4.57;;;;;;;10.12;100.00;97210.41;7400145;19;20383;-59
2024/04/13 01:45:13;;;;;;;5.88;4.25;;;;;;;9.92;100.00;97213.50;7399807;19;20005;-56
2024/04/13 01:47:40;;;;;;;5.55;4.32;;;;;;;9.61;100.00;97204.66;7399748;19;20002;-60
2024/04/13 01:50:06;;;;;;;4.70;4.30;;;;;;;9.75;100.00;97206.09;7399681;19;20047;-62
2024/04/13 01:52:32;;;;;;;7.75;4.80;;;;;;;9.87;100.00;97213.63;7399547;19;20017;-57
2024/04/13 01:54:59;;;;;;;7.68;4.05;;;;;;;9.92;100.00;97211.78;7399454;19;19998;-56
2024/04/13 01:57:25;;;;;;;9.10;4.88;;;;;;;9.99;100.00;97209.84;7399909;19;20019;-53
2024/04/13 01:59:51;;;;;;;8.05;4.40;;;;;;;10.13;100.00;97198.19;7399416;19;20336;-58
2024/04/13 02:02:16;;;;;;;8.63;4.55;;;;;;;10.19;100.00;97198.91;7399232;19;19991;-52
2024/04/13 02:04:42;;;;;;;8.52;5.43;;;;;;;10.29;100.00;97206.50;7397920;19;20003;-62
2024/04/13 02:07:07;;;;;;;9.75;4.72;;;;;;;10.24;100.00;97202.22;7399062;19;20022;-52
2024/04/13 02:09:33;;;;;;;6.50;4.30;;;;;;;9.81;100.00;97193.72;7398987;19;20089;-56
2024/04/13 02:12:00;;;;;;;7.82;4.75;;;;;;;9.93;100.00;97197.78;7398939;19;20109;-56
2024/04/13 02:14:26;;;;;;;10.60;4.25;;;;;;;10.07;100.00;97197.47;7396989;19;20364;-54
2024/04/13 02:16:52;;;;;;;6.85;4.18;;;;;;;10.17;100.00;97199.84;7399316;19;20007;-58
2024/04/13 02:19:18;;;;;;;6.50;4.72;;;;;;;10.18;100.00;97197.16;7398672;19;19999;-52
2024/04/13 02:21:44;;;;;;;7.15;4.47;;;;;;;10.08;100.00;97198.28;7399054;19;20014;-59
2024/04/13 02:24:10;;;;;;;8.95;4.60;;;;;;;10.15;100.00;97204.25;7398471;19;19999;-57
2024/04/13 02:26:35;;;;;;;7.18;4.38;;;;;;;10.17;100.00;97205.06;7398952;19;19999;-58
2024/04/13 02:29:01;;;;;;;9.57;5.45;;;;;;;10.04;100.00;97209.72;7398403;19;19995;-60
2024/04/13 02:31:26;;;;;;;7.60;4.80;;;;;;;10.08;100.00;97206.13;7398850;19;20082;-53
2024/04/13 02:33:52;;;;;;;8.38;5.28;;;;;;;10.13;100.00;97206.03;7397093;19;20006;-58
2024/04/13 02:36:18;;;;;;;7.53;4.25;;;;;;;10.25;100.00;97221.41;7398360;19;20002;-58
2024/04/13 02:38:44;;;;;;;8.88;4.85;;;;;;;10.27;100.00;97214.41;7398641;19;20002;-54
2024/04/13 02:41:10;;;;;;;7.97;4.93;;;;;;;10.31;100.00;97212.53;7398076;19;20410;-57
2024/04/13 02:43:38;;;;;;;7.63;5.05;;;;;;;10.21;100.00;97212.78;7397929;19;20011;-56
2024/04/13 02:46:08;;;;;;;9.13;4.72;;;;;;;10.04;100.00;97205.38;7398234;19;20003;-62
2024/04/13 02:48:41;;;;;;;9.07;4.60;;;;;;;10.20;100.00;97213.69;7397840;19;19994;-55
2024/04/13 02:51:08;;;;;;;6.68;5.25;;;;;;;10.26;100.00;97199.59;7398192;19;20013;-62
2024/04/13 02:53:35;;;;;;;9.40;4.78;;;;;;;10.24;100.00;97211.84;7396626;19;19999;-55
2024/04/13 02:56:04;;;;;;;7.78;5.10;;;;;;;10.18;100.00;97212.84;7397932;19;20013;-59
2024/04/13 02:58:30;;;;;;;9.98;4.80;;;;;;;9.96;100.00;97209.91;7397547;19;19998;-57
2024/04/13 03:01:00;;;;;;;6.55;4.60;;;;;;;10.00;100.00;97216.81;7397956;19;19995;-56
2024/04/13 03:03:26;;;;;;;8.02;4.45;;;;;;;9.88;100.00;97212.75;7397492;19;19999;-61
2024/04/13 03:06:13;;;;;;;6.47;4.55;;;;;;;9.93;100.00;97217.88;7395321;19;20017;-62
2024/04/13 03:08:40;;;;;;;9.88;5.13;;;;;;;9.77;100.00;97215.59;7397211;19;20007;-56
2024/04/13 03:11:11;;;;;;;7.88;5.20;;;;;;;9.82;100.00;97215.50;7396994;19;20346;-58
2024/04/13 03:13:37;;;;;;;10.13;4.82;;;;;;;9.79;100.00;97213.81;7396148;19;20472;-58
2024/04/13 03:16:10;;;;;;;7.43;5.03;;;;;;;9.89;100.00;97211.84;7396846;19;20015;-54
2024/04/13 03:18:41;;;;;;;9.23;4.85;;;;;;;9.82;100.00;97208.50;7397157;19;20036;-56
2024/04/13 03:21:08;;;;;;;8.93;5.10;;;;;;;9.85;100.00;97216.28;7396799;19;19999;-59
2024/04/13 03:23:36;;;;;;;7.28;5.05;;;;;;;9.66;100.00;97209.78;7396996;19;19995;-57
2024/04/13 03:26:02;;;;;;;7.82;5.85;;;;;;;9.66;100.00;97218.47;7397087;19;20014;-57
2024/04/13 03:28:33;;;;;;;6.72;5.15;;;;;;;9.78;100.00;97224.31;7396464;19;20007;-56
2024/04/13 03:30:59;;;;;;;6.32;5.20;;;;;;;9.91;100.00;97225.75;7397078;19;20005;-58
2024/04/13 03:33:25;;;;;;;11.10;5.15;;;;;;;9.86;100.00;97224.97;7395976;19;20349;-55
2024/04/13 03:35:51;;;;;;;13.73;6.13;;;;;;;9.90;100.00;97225.78;7396279;19;19998;-56
2024/04/13 03:38:18;;;;;;;9.88;5.40;;;;;;;10.08;100.00;97219.22;7396163;19;20004;-57
2024/04/13 03:40:46;;;;;;;6.00;5.22;;;;;;;10.25;100.00;97229.25;7396107;19;19991;-60
2024/04/13 03:43:14;;;;;;;9.73;5.70;;;;;;;10.47;100.00;97234.81;7396136;19;20357;-61
2024/04/13 03:45:52;;;;;;;9.13;5.32;;;;;;;10.53;100.00;97246.03;7395963;19;20037;-59
2024/04/13 03:48:17;;;;;;;10.60;5.60;;;;;;;10.36;100.00;97260.38;7396343;19;20013;-58
2024/04/13 03:50:43;;;;;;;12.30;5.18;;;;;;;10.42;100.00;97260.19;7395844;19;20363;-56
2024/04/13 03:53:08;;;;;;;9.20;5.05;;;;;;;10.34;100.00;97263.03;7393521;19;20002;-56
2024/04/13 03:55:34;;;;;;;8.98;5.60;;;;;;;10.48;100.00;97267.91;7395721;19;19998;-61
2024/04/13 03:57:59;;;;;;;7.75;5.25;;;;;;;10.52;100.00;97266.09;7395500;19;20024;-60
2024/04/13 04:00:25;;;;;;;8.07;5.07;;;;;;;10.54;100.00;97266.03;7395977;19;20066;-57
2024/04/13 04:02:50;;;;;;;16.17;5.70;;;;;;;10.74;100.00;97255.03;7395433;19;20457;-59
2024/04/13 04:05:17;;;;;;;12.77;6.50;;;;;;;10.78;100.00;97245.34;7393895;19;20076;-56
2024/04/13 04:07:43;;;;;;;6.65;5.80;;;;;;;10.54;100.00;97245.13;7395666;19;20366;-57
2024/04/13 04:10:11;;;;;;;9.75;6.65;;;;;;;10.57;100.00;97245.03;7395167;19;19991;-53
2024/04/13 04:12:39;;;;;;;7.93;6.32;;;;;;;10.49;100.00;97240.00;7395126;19;19995;-59
2024/04/13 04:15:05;;;;;;;12.32;7.22;;;;;;;10.61;100.00;97242.31;7395214;19;20003;-56
2024/04/13 04:17:31;;;;;;;9.65;7.65;;;;;;;10.63;100.00;97237.03;7394989;19;19995;-59
2024/04/13 04:19:57;;;;;;;11.00;7.97;;;;;;;10.55;100.00;97233.75;7395008;19;20010;-58
2024/04/13 04:22:22;;;;;;;13.10;7.55;;;;;;;10.56;100.00;97223.25;7394873;19;20009;-54
2024/04/13 04:24:50;;;;;;;13.93;8.45;;;;;;;10.55;100.00;97218.03;7394883;19;19999;-58
2024/04/13 04:27:18;;;;;;;10.13;7.80;;;;;;;10.59;100.00;97204.84;7394761;19;20007;-60
2024/04/13 04:29:43;;;;;;;9.90;7.55;;;;;;;10.40;100.00;97206.22;7395153;19;20014;-56
2024/04/13 04:32:10;;;;;;;9.30;7.43;;;;;;;10.45;100.00;97210.44;7395156;19;20393;-54
2024/04/13 04:34:35;;;;;;;9.07;7.57;;;;;;;10.52;100.00;97210.28;7393157;19;20035;-55
2024/04/13 04:37:01;;;;;;;12.63;7.40;;;;;;;10.55;100.00;97210.19;7394590;19;19999;-57
2024/04/13 04:39:28;;;;;;;14.10;8.35;;;;;;;10.46;100.00;97216.53;7394386;19;20042;-54
2024/04/13 04:41:54;;;;;;;9.48;8.50;;;;;;;10.33;100.00;97224.66;7394390;19;20504;-57
2024/04/13 04:44:20;;;;;;;15.98;9.68;;;;;;;10.36;100.00;97226.38;7394434;19;20001;-56
2024/04/13 04:46:47;;;;;;;21.30;8.68;;;;;;;10.52;100.00;97231.22;7394264;19;20022;-56
2024/04/13 04:49:13;;;;;;;11.57;9.07;;;;;;;10.46;100.00;97238.34;7394432;19;20050;-57
2024/04/13 04:51:40;;;;;;;10.63;9.00;;;;;;;10.55;100.00;97246.81;7394669;19;20016;-58
2024/04/13 04:54:08;;;;;;;12.88;10.40;;;;;;;10.71;100.00;97240.28;7392801;19;19995;-57
2024/04/13 04:56:34;;;;;;;12.93;11.13;;;;;;;10.97;100.00;97235.22;7393970;19;20001;-58
2024/04/13 04:59:00;;;;;;;13.35;11.30;;;;;;;11.04;100.00;97235.88;7394029;19;19998;-58
2024/04/13 05:01:25;;;;;;;19.73;12.45;;;;;;;11.24;100.00;97232.69;7393972;19;19998;-60
2024/04/13 05:03:51;;;;;;;16.02;12.00;;;;;;;11.37;100.00;97231.44;7393283;19;20002;-57
2024/04/13 05:06:20;;;;;;;14.20;12.32;;;;;;;11.39;100.00;97231.38;7397298;19;20070;-58
2024/04/13 05:08:47;;;;;;;13.85;11.40;;;;;;;11.40;100.00;97226.97;7401625;19;20027;-56
2024/04/13 05:11:14;;;;;;;58.08;31.42;;;;;;;11.46;100.00;97232.03;7401219;19;19999;-58
2024/04/13 05:13:40;;;;;;;48.83;28.85;;;;;;;11.48;100.00;97235.50;7399846;19;20322;-58
2024/04/13 05:16:09;;;;;;;36.88;22.42;;;;;;;11.50;100.00;97237.16;7400925;19;19997;-57
2024/04/13 05:18:38;;;;;;;24.08;17.13;;;;;;;11.54;100.00;97232.69;7401340;19;20006;-58
2024/04/13 05:21:04;;;;;;;17.15;12.48;;;;;;;11.35;100.00;97243.72;7401164;19;20379;-58
2024/04/13 05:23:30;;;;;;;13.68;12.15;;;;;;;11.46;100.00;97242.53;7400649;19;20026;-58
2024/04/13 05:25:56;;;;;;;15.77;12.18;;;;;;;11.55;100.00;97242.25;7400618;19;19998;-57
2024/04/13 05:28:23;;;;;;;21.50;12.98;;;;;;;11.65;100.00;97232.31;7400448;19;20017;-54
2024/04/13 05:31:00;;;;;;;17.33;13.00;;;;;;;11.74;100.00;97226.81;7400339;19;19994;-59
2024/04/13 05:33:27;;;;;;;17.88;12.93;;;;;;;11.87;100.00;97237.75;7399501;19;20006;-58
2024/04/13 05:35:56;;;;;;;16.63;12.18;;;;;;;11.92;100.00;97234.13;7400320;19;19995;-57
2024/04/13 05:38:22;;;;;;;13.13;10.20;;;;;;;11.84;100.00;97230.00;7400127;19;19995;-61
2024/04/13 05:40:50;;;;;;;15.75;10.90;;;;;;;11.94;100.00;97230.56;7400057;19;19999;-56
2024/04/13 05:43:16;;;;;;;15.57;9.88;;;;;;;12.12;100.00;97223.88;7400104;19;20795;-61
2024/04/13 05:45:43;;;;;;;12.82;10.75;;;;;;;12.22;100.00;97220.97;7399882;19;20403;-59
2024/04/13 05:48:09;;;;;;;15.02;11.35;;;;;;;12.39;100.00;97225.63;7399870;19;20346;-55
2024/04/13 05:50:35;;;;;;;13.30;11.90;;;;;;;12.55;100.00;97225.09;7399690;19;19998;-59
2024/04/13 05:53:00;;;;;;;14.00;10.63;;;;;;;12.63;100.00;97223.03;7397800;19;20006;-57
2024/04/13 05:55:26;;;;;;;12.35;10.02;;;;;;;12.81;100.00;97220.66;7399598;19;20114;-57
2024/04/13 05:57:52;;;;;;;12.27;10.63;;;;;;;13.01;100.00;97225.19;7399516;19;20054;-57
2024/04/13 06:00:17;;;;;;;13.75;12.00;;;;;;;13.13;100.00;97226.50;7399951;19;20031;-61
2024/04/13 06:02:43;;;;;;;15.02;11.50;;;;;;;13.23;100.00;97224.38;7399273;19;20488;-59
2024/04/13 06:05:09;;;;;;;13.27;10.02;;;;;;;13.17;100.00;97230.72;7397364;19;20006;-57
2024/04/13 06:07:35;;;;;;;10.35;9.32;;;;;;;13.21;100.00;97221.81;7399211;19;20010;-60
2024/04/13 06:10:01;;;;;;;14.02;10.15;;;;;;;13.34;100.00;97222.19;7399095;19;20010;-57
2024/04/13 06:12:27;;;;;;;12.90;9.20;;;;;;;13.68;100.00;97225.31;7399007;19;20010;-60
2024/04/13 06:14:53;;;;;;;13.35;11.98;;;;;;;13.83;100.00;97223.00;7396681;19;19999;-59
2024/04/13 06:17:19;;;;;;;13.02;11.60;;;;;;;13.73;100.00;97223.34;7398033;19;20003;-55
2024/04/13 06:19:45;;;;;;;17.02;11.68;;;;;;;13.86;100.00;97221.09;7398760;19;20521;-60
2024/04/13 06:22:11;;;;;;;15.75;11.90;;;;;;;13.93;100.00;97221.69;7398667;19;20037;-57
2024/04/13 06:24:36;;;;;;;14.35;10.85;;;;;;;13.77;100.00;97201.31;7398627;19;20019;-56
2024/04/13 06:27:03;;;;;;;12.25;10.98;;;;;;;13.84;100.00;97229.97;7399018;19;20003;-62
2024/04/13 06:29:29;;;;;;;12.27;10.77;;;;;;;14.12;100.00;97231.47;7398434;19;20031;-57
2024/04/13 06:31:55;;;;;;;15.25;10.80;;;;;;;14.42;100.00;97240.78;7398389;19;20006;-53
2024/04/13 06:34:21;;;;;;;16.98;10.20;;;;;;;14.53;100.00;97228.00;7396869;19;19999;-57
2024/04/13 06:36:47;;;;;;;14.70;10.77;;;;;;;14.77;100.00;97238.38;7398285;19;20332;-62
2024/04/13 06:39:14;;;;;;;12.57;11.35;;;;;;;14.91;100.00;97243.09;7398169;19;20884;-55
2024/04/13 06:41:43;;;;;;;19.00;11.27;;;;;;;15.07;100.00;97252.91;7398062;19;20002;-54
2024/04/13 06:44:09;;;;;;;12.55;10.48;;;;;;;15.16;100.00;97248.13;7396894;19;20121;-52
2024/04/13 06:46:34;;;;;;;12.55;10.88;;;;;;;15.26;100.00;97243.25;7398341;19;20465;-57
2024/04/13 06:49:00;;;;;;;13.90;9.48;;;;;;;15.49;100.00;97244.00;7397817;19;20445;-60
2024/04/13 06:51:26;;;;;;;10.20;8.98;;;;;;;15.62;100.00;97243.41;7397741;19;19999;-55
2024/04/13 06:53:52;;;;;;;10.27;9.25;;;;;;;15.77;100.00;97247.09;7396656;19;20023;-60
2024/04/13 06:56:19;;;;;;;9.32;8.27;;;;;;;16.13;100.00;97245.41;7397628;19;19999;-57
2024/04/13 06:58:45;;;;;;;10.73;8.10;;;;;;;17.24;100.00;97250.38;7397468;19;19995;-53
2024/04/13 07:01:10;;;;;;;9.88;7.95;;;;;;;17.44;98.84;97257.25;7397493;19;20022;-59
2024/04/13 07:03:36;;;;;;;9.32;7.28;;;;;;;17.71;95.35;97253.13;7397333;19;20003;-57
2024/04/13 07:06:04;;;;;;;11.40;6.65;;;;;;;17.88;90.39;97250.41;7395170;19;20002;-57
2024/04/13 07:08:30;;;;;;;7.13;6.20;;;;;;;18.30;87.62;97258.66;7397120;19;20473;-55
2024/04/13 07:10:56;;;;;;;6.75;6.05;;;;;;;18.46;83.90;97255.13;7395695;19;20026;-58
2024/04/13 07:13:25;;;;;;;6.63;5.80;;;;;;;18.20;84.05;97254.81;7396946;19;20006;-57
2024/04/13 07:15:51;;;;;;;5.85;5.35;;;;;;;20.71;69.94;97259.72;7396925;19;19999;-58
2024/04/13 07:18:16;;;;;;;7.00;4.90;;;;;;;20.18;68.93;97266.72;7396800;19;20475;-53
2024/04/13 07:20:46;;;;;;;6.53;5.57;;;;;;;20.43;70.16;97259.78;7397183;19;20062;-55
2024/04/13 07:23:12;;;;;;;7.07;5.63;;;;;;;21.40;69.58;97266.53;7396837;19;20014;-55
2024/04/13 07:25:38;;;;;;;7.38;5.45;;;;;;;21.57;69.31;97264.47;7396654;19;20026;-60
2024/04/13 07:28:04;;;;;;;7.10;4.75;;;;;;;21.76;65.76;97257.88;7394731;19;19999;-55
2024/04/13 07:30:29;;;;;;;6.45;4.75;;;;;;;21.79;63.05;97266.47;7396555;19;20026;-54
2024/04/13 07:32:55;;;;;;;6.57;4.32;;;;;;;21.89;65.76;97265.81;7396443;19;20468;-60
2024/04/13 07:35:21;;;;;;;5.35;4.85;;;;;;;21.69;64.89;97262.75;7396304;19;19998;-61
2024/04/13 07:37:46;;;;;;;8.60;5.00;;;;;;;20.77;67.37;97259.28;7396190;19;20066;-56
2024/04/13 07:40:12;;;;;;;10.23;5.47;;;;;;;21.63;67.31;97258.72;7396142;19;20002;-54
2024/04/13 07:42:37;;;;;;;7.82;5.07;;;;;;;21.84;64.81;97253.69;7395955;19;20011;-54
2024/04/13 07:45:03;;;;;;;7.72;5.07;;;;;;;21.52;64.71;97251.50;7396124;19;19998;-61
2024/04/13 07:47:29;;;;;;;6.28;4.10;;;;;;;21.89;61.88;97252.50;7396407;19;20331;-58
2024/04/13 07:49:54;;;;;;;5.88;4.07;;;;;;;22.39;58.35;97257.69;7396278;19;20017;-58
2024/04/13 07:52:20;;;;;;;8.60;4.85;;;;;;;21.43;60.48;97247.69;7395780;19;20600;-61
2024/04/13 07:54:46;;;;;;;9.15;3.95;;;;;;;21.84;59.67;97253.69;7394251;19;20078;-58
2024/04/13 07:57:12;;;;;;;10.38;3.78;;;;;;;22.20;58.09;97251.09;7395678;19;20012;-55
2024/04/13 07:59:37;;;;;;;7.32;4.25;;;;;;;22.35;55.68;97253.56;7395972;19;20010;-55
2024/04/13 08:02:03;;;;;;;7.75;4.35;;;;;;;22.51;59.81;97249.75;7395451;19;19999;-55
2024/04/13 08:04:29;;;;;;;8.68;4.55;;;;;;;22.32;60.09;97235.13;7394757;19;20006;-58
2024/04/13 08:06:54;;;;;;;8.70;4.57;;;;;;;22.38;55.45;97239.13;7395343;19;20372;-57
2024/04/13 08:09:20;;;;;;;6.00;4.55;;;;;;;22.73;57.46;97240.97;7395302;19;20022;-57
2024/04/13 08:11:45;;;;;;;6.55;4.28;;;;;;;22.40;57.18;97239.88;7395138;19;20022;-54
2024/04/13 08:14:11;;;;;;;8.35;4.78;;;;;;;22.50;58.58;97238.22;7394053;19;20003;-56
2024/04/13 08:16:37;;;;;;;7.72;5.00;;;;;;;23.32;55.29;97248.91;7394988;19;20011;-53
2024/04/13 08:19:03;;;;;;;5.95;4.45;;;;;;;23.25;56.45;97251.22;7395192;19;20019;-59
2024/04/13 08:21:28;;;;;;;5.00;3.38;;;;;;;22.76;57.50;97242.56;7395060;19;20031;-55
2024/04/13 08:23:54;;;;;;;6.10;4.10;;;;;;;22.78;57.99;97241.47;7393410;19;20003;-57
2024/04/13 08:26:19;;;;;;;4.43;3.92;;;;;;;22.70;55.63;97242.03;7394881;19;20014;-59
2024/04/13 08:28:46;;;;;;;8.30;4.47;;;;;;;22.71;57.40;97234.91;7395245;19;20010;-59
2024/04/13 08:31:12;;;;;;;7.35;4.68;;;;;;;22.90;56.10;97230.84;7394651;19;20006;-58
2024/04/13 08:33:38;;;;;;;7.78;4.38;;;;;;;23.39;54.94;97231.47;7393974;19;20465;-55
2024/04/13 08:36:05;;;;;;;5.13;4.28;;;;;;;23.00;58.46;97226.47;7395037;19;20013;-57
2024/04/13 08:38:32;;;;;;;5.43;4.10;;;;;;;23.46;53.83;97227.34;7394945;19;20003;-53
2024/04/13 08:41:03;;;;;;;4.82;3.75;;;;;;;22.69;53.76;97227.03;7398951;19;20365;-59
2024/04/13 08:43:28;;;;;;;;;;;;;;;22.71;53.93;97224.25;7403086;19;20007;-58
2024/04/13 08:45:55;;;;;;;6.13;4.05;;;;;;;22.95;53.92;97228.63;7401982;19;20379;-55
2024/04/13 08:48:22;;;;;;;6.22;4.00;;;;;;;21.78;52.05;97216.00;7401867;19;20006;-54
2024/04/13 08:50:49;;;;;;;6.25;3.80;;;;;;;23.32;55.08;97214.22;7401763;19;20010;-59
2024/04/13 08:53:17;;;;;;;6.35;3.95;;;;;;;23.17;50.90;97219.81;7401099;19;20006;-61
2024/04/13 08:55:44;;;;;;;5.18;4.68;;;;;;;22.73;55.67;97209.00;7401571;19;20003;-54
2024/04/13 08:58:14;;;;;;;9.35;4.40;;;;;;;23.18;54.87;97205.47;7401727;19;20002;-58
2024/04/13 09:00:45;;;;;;;5.60;4.40;;;;;;;23.03;54.35;97204.03;7401536;19;20462;-59
2024/04/13 09:03:12;;;;;;;10.13;4.30;;;;;;;23.16;52.95;97207.44;7401411;19;20083;-51
2024/04/13 09:05:38;;;;;;;4.63;4.22;;;;;;;22.91;54.24;97206.69;7398901;19;20005;-56
2024/04/13 09:08:04;;;;;;;9.02;4.32;;;;;;;22.73;60.91;97187.66;7401734;19;20013;-51
2024/04/13 09:10:33;;;;;;;6.05;4.35;;;;;;;21.99;54.40;97189.59;7401128;19;20021;-61
2024/04/13 09:12:59;;;;;;;13.48;5.07;;;;;;;23.85;54.10;97196.69;7401191;19;20014;-56
2024/04/13 09:15:25;;;;;;;6.57;4.72;;;;;;;23.63;56.40;97193.06;7400994;19;19995;-56
2024/04/13 09:17:52;;;;;;;6.60;4.93;;;;;;;23.70;56.57;97194.28;7400884;19;20006;-54
2024/04/13 09:20:20;;;;;;;6.35;4.35;;;;;;;23.10;54.16;97189.25;7400767;19;20013;-60
2024/04/13 09:22:46;;;;;;;5.95;4.07;;;;;;;23.82;52.53;97189.78;7400714;19;20007;-61
2024/04/13 09:25:22;;;;;;;11.23;5.20;;;;;;;23.54;54.69;97176.00;7400536;19;20020;-58
2024/04/13 09:28:17;;;;;;;8.15;4.05;;;;;;;23.48;51.59;97177.34;7401048;19;20026;-57
2024/04/13 09:30:46;;;;;;;6.00;4.07;;;;;;;23.11;55.97;97174.94;7399530;19;20449;-57
2024/04/13 09:33:13;;;;;;;10.53;4.87;;;;;;;23.06;54.33;97177.97;7399866;19;20006;-54
2024/04/13 09:35:38;;;;;;;7.97;4.57;;;;;;;22.99;55.70;97176.75;7400840;19;20007;-52
2024/04/13 09:38:04;;;;;;;6.70;4.32;;;;;;;23.51;54.47;97170.91;7400268;19;19999;-57
2024/04/13 09:40:30;;;;;;;12.52;4.47;;;;;;;22.59;52.26;97165.59;7400080;19;19991;-53
2024/04/13 09:42:57;;;;;;;11.48;3.85;;;;;;;23.02;57.87;97163.16;7400504;19;20002;-55
2024/04/13 09:45:24;;;;;;;6.68;4.65;;;;;;;23.32;53.83;97160.84;7399915;19;20003;-60
2024/04/13 09:47:52;;;;;;;10.07;4.30;;;;;;;23.52;52.78;97167.28;7399920;19;20469;-57
2024/04/13 09:50:18;;;;;;;7.43;4.30;;;;;;;23.62;51.66;97166.53;7399721;19;20002;-59
2024/04/13 09:52:44;;;;;;;5.75;4.15;;;;;;;23.73;52.74;97159.34;7397832;19;19997;-57
2024/04/13 09:55:11;;;;;;;7.50;4.47;;;;;;;23.37;54.40;97156.03;7397388;19;20006;-57
2024/04/13 09:57:38;;;;;;;7.85;4.43;;;;;;;24.08;53.18;97145.84;7399897;19;20002;-58
2024/04/13 10:00:07;;;;;;;7.25;4.43;;;;;;;23.70;51.04;97156.06;7399828;19;20068;-55
2024/04/13 10:02:33;;;;;;;6.38;4.55;;;;;;;23.68;52.63;97155.31;7399366;19;20398;-51
2024/04/13 10:05:01;;;;;;;8.32;4.40;;;;;;;24.00;53.92;97151.81;7397827;19;20020;-60
2024/04/13 10:07:28;;;;;;;8.65;4.57;;;;;;;23.71;51.91;97150.59;7399272;19;20006;-57
2024/04/13 10:10:01;;;;;;;6.93;4.43;;;;;;;23.73;52.43;97148.66;7399630;19;20007;-57
2024/04/13 10:12:32;;;;;;;10.98;4.20;;;;;;;22.62;56.06;97145.84;7399202;19;20005;-58
2024/04/13 10:15:00;;;;;;;6.80;4.35;;;;;;;22.67;54.57;97148.97;7396800;19;20006;-59
2024/04/13 10:17:27;;;;;;;10.70;5.05;;;;;;;21.70;54.52;97147.31;7398901;19;20002;-57
2024/04/13 10:19:53;;;;;;;9.05;4.78;;;;;;;22.62;53.12;97145.84;7398777;19;20005;-60
2024/04/13 10:22:21;;;;;;;11.68;5.10;;;;;;;22.76;54.62;97146.56;7399204;19;20392;-55
2024/04/13 10:24:47;;;;;;;8.27;4.80;;;;;;;22.85;54.68;97145.84;7398687;19;20015;-55
2024/04/13 10:27:13;;;;;;;6.72;4.20;;;;;;;22.00;56.24;97143.34;7399065;19;20018;-61
2024/04/13 10:29:46;;;;;;;8.65;4.93;;;;;;;22.84;53.44;97144.13;7398889;19;20025;-58
2024/04/13 10:32:22;;;;;;;5.70;4.00;;;;;;;23.79;52.26;97147.28;7398573;19;20003;-56
2024/04/13 10:34:51;;;;;;;7.63;4.85;;;;;;;23.63;52.60;97138.84;7396507;19;20010;-57
2024/04/13 10:37:30;;;;;;;12.38;5.15;;;;;;;24.30;51.44;97131.53;7398843;19;20040;-57
2024/04/13 10:39:58;;;;;;;13.27;4.90;;;;;;;24.20;50.90;97126.09;7398255;19;20062;-60
2024/04/13 10:42:37;;;;;;;5.80;4.38;;;;;;;23.13;52.94;97132.13;7398501;19;20003;-56
2024/04/13 10:45:09;;;;;;;7.00;4.65;;;;;;;23.12;56.00;97130.44;7398506;19;20120;-56
2024/04/13 10:47:37;;;;;;;9.77;4.78;;;;;;;22.62;53.14;97135.16;7397959;19;19998;-59
2024/04/13 10:50:04;;;;;;;17.05;5.10;;;;;;;22.52;54.85;97139.50;7398326;19;20074;-55
2024/04/13 10:52:29;;;;;;;6.45;4.60;;;;;;;22.27;55.93;97134.22;7397826;19;20019;-60
2024/04/13 10:54:58;;;;;;;8.50;4.60;;;;;;;22.37;54.77;97133.53;7395864;19;19999;-53
2024/04/13 10:57:24;;;;;;;11.60;4.95;;;;;;;21.72;53.00;97121.44;7397604;19;20006;-54
2024/04/13 10:59:51;;;;;;;8.35;4.60;;;;;;;23.27;54.55;97128.34;7396130;19;20006;-57
2024/04/13 11:02:17;;;;;;;10.30;4.53;;;;;;;23.62;50.60;97121.97;7397355;19;20002;-57
2024/04/13 11:04:46;;;;;;;9.27;5.22;;;;;;;23.62;51.47;97124.66;7396429;19;20002;-53
2024/04/13 11:07:13;;;;;;;9.15;5.22;;;;;;;23.79;50.59;97130.41;7397275;19;20011;-60
2024/04/13 11:09:39;;;;;;;17.90;5.07;;;;;;;24.18;49.76;97125.41;7397148;19;20069;-59
2024/04/13 11:12:11;;;;;;;11.88;4.85;;;;;;;23.81;48.01;97139.97;7397251;19;20003;-59
2024/04/13 11:14:36;;;;;;;6.97;4.47;;;;;;;23.42;49.65;97134.28;7394477;19;20500;-60
2024/04/13 11:17:02;;;;;;;11.63;4.80;;;;;;;22.04;54.23;97134.19;7397083;19;19995;-58
2024/04/13 11:19:27;;;;;;;8.30;4.38;;;;;;;21.73;54.82;97107.16;7396859;19;19999;-62
2024/04/13 11:21:55;;;;;;;8.73;4.93;;;;;;;21.19;56.04;97111.97;7396778;19;20062;-58